Terminal Aerodrome Forecast
Issued by NWS Sterling, VA

Current Version | Previous Version | Text Only | Print | Product List | Glossary Off
Versions: 1 2 3 4 5 6 7 8 9 10 11 12 13 14 15 16 17 18 19 20 21 22

000
FTUS41 KLWX 231134
TAFDCA
TAF
KDCA 231134Z 2312/2412 23006KT P6SM SCT070 BKN090
     FM231400 28011KT P6SM SCT070
     FM231700 28015G24KT P6SM BKN060
     FM240100 31010KT P6SM BKN060
     FM241000 30008KT P6SM SCT250=

USA.gov is the U.S. government's official web portal to all federal, state and local government web resources and services.